Time;durP1;ratioP1;P1;durP2;ratioP2;P2;SDS_P1;SDS_P2;PMS_P1;PMS_P2;Temp;Humidity;BMP_temperature;BMP_pressure;BME280_temperature;BME280_humidity;BME280_pressure;Samples;Min_cycle;Max_cycle;Signal;HPM_P1;HPM_P2
2020/12/03 00:01:57;;;;;;;12.60;9.33;;;;;;;-0.20;88.81;97029.41;5073065;28;20231;-85
2020/12/03 00:04:24;;;;;;;14.90;10.03;;;;;;;-0.05;87.77;97012.31;5073163;28;20201;-84
2020/12/03 00:06:55;;;;;;;14.37;10.17;;;;;;;-0.01;88.23;97019.00;5073061;28;20292;-85
2020/12/03 00:09:23;;;;;;;12.53;9.30;;;;;;;-0.09;88.70;97021.97;5073001;28;20182;-85
2020/12/03 00:11:52;;;;;;;11.70;10.13;;;;;;;0.08;87.56;97015.16;5073015;28;20687;-84
2020/12/03 00:14:21;;;;;;;14.63;10.50;;;;;;;-0.11;87.70;97017.78;5073147;28;20201;-85
2020/12/03 00:16:49;;;;;;;14.20;9.93;;;;;;;-0.11;87.67;97020.38;5072787;28;20623;-84
2020/12/03 00:19:18;;;;;;;13.70;9.70;;;;;;;-0.09;87.61;97011.63;5072920;28;20228;-84
2020/12/03 00:21:47;;;;;;;16.00;11.43;;;;;;;-0.22;89.11;97018.31;5072578;28;20203;-85
2020/12/03 00:24:18;;;;;;;14.10;10.53;;;;;;;-0.32;89.64;97022.25;5073206;28;20235;-84
2020/12/03 00:26:45;;;;;;;16.87;11.40;;;;;;;-0.25;89.91;97010.69;5072477;28;20189;-85
2020/12/03 00:29:12;;;;;;;13.53;10.67;;;;;;;-0.24;90.15;97017.56;5072799;28;20193;-85
2020/12/03 00:31:39;;;;;;;16.23;11.47;;;;;;;-0.42;90.81;97024.41;5072481;28;20225;-85
2020/12/03 00:34:06;;;;;;;18.07;11.43;;;;;;;-0.38;90.93;97025.09;5073277;28;20197;-85
2020/12/03 00:36:35;;;;;;;17.63;13.23;;;;;;;-0.31;91.01;97034.25;5072735;28;20284;-84
2020/12/03 00:39:02;;;;;;;17.57;10.80;;;;;;;-0.76;89.70;97041.50;5072561;28;20743;-85
2020/12/03 00:41:29;;;;;;;16.70;11.03;;;;;;;-0.81;89.45;97038.28;5072441;28;20201;-85
2020/12/03 00:43:56;;;;;;;17.67;12.17;;;;;;;-0.82;89.36;97046.94;5072789;28;20654;-84
2020/12/03 00:46:28;;;;;;;17.83;10.73;;;;;;;-0.80;90.11;97045.09;5072420;28;20201;-85
2020/12/03 00:48:55;;;;;;;14.63;10.77;;;;;;;-0.85;90.69;97049.66;5072671;28;20264;-84
2020/12/03 00:51:23;;;;;;;17.13;10.80;;;;;;;-0.78;90.79;97045.88;5072761;28;20656;-84
2020/12/03 00:53:51;;;;;;;12.37;10.33;;;;;;;-0.66;90.33;97047.06;5071473;28;20289;-84
2020/12/03 00:56:19;;;;;;;14.33;9.80;;;;;;;-0.66;91.04;97041.88;5072667;28;20238;-84
2020/12/03 00:58:46;;;;;;;17.10;11.57;;;;;;;-0.78;91.66;97042.47;5072608;28;20630;-85
2020/12/03 01:01:13;;;;;;;14.13;11.33;;;;;;;-0.62;91.43;97040.03;5072304;28;20259;-84
2020/12/03 01:03:40;;;;;;;18.07;12.67;;;;;;;-0.56;91.00;97042.31;5072141;28;20256;-85
2020/12/03 01:06:07;;;;;;;17.17;13.27;;;;;;;-0.58;91.44;97032.06;5072624;28;20267;-84
2020/12/03 01:08:34;;;;;;;15.50;12.40;;;;;;;-0.65;91.43;97029.84;5072370;28;20236;-84
2020/12/03 01:11:02;;;;;;;19.77;13.40;;;;;;;-0.44;91.43;97026.25;5072386;28;20200;-85
2020/12/03 01:13:29;;;;;;;18.00;13.43;;;;;;;-0.49;91.41;97020.44;5072124;28;20193;-85
2020/12/03 01:15:56;;;;;;;16.53;12.53;;;;;;;-0.27;91.75;97013.38;5072334;28;20624;-84
2020/12/03 01:18:23;;;;;;;18.00;12.63;;;;;;;-0.42;91.43;97006.34;5072281;28;20201;-84
2020/12/03 01:20:50;;;;;;;29.13;18.53;;;;;;;-0.37;90.58;97006.97;5072274;28;20237;-84
2020/12/03 01:23:17;;;;;;;21.93;13.10;;;;;;;-0.53;90.69;97012.00;5071926;28;20799;-83
2020/12/03 01:25:44;;;;;;;21.10;12.57;;;;;;;-0.66;91.72;97012.66;5072047;28;20197;-85
2020/12/03 01:28:12;;;;;;;20.60;12.43;;;;;;;-0.58;91.94;97010.56;5072001;28;20661;-85
2020/12/03 01:30:39;;;;;;;17.10;12.10;;;;;;;-0.42;92.22;97008.09;5072485;28;20610;-85
2020/12/03 01:33:06;;;;;;;17.63;12.53;;;;;;;-0.60;92.00;97014.97;5071925;28;20207;-85
2020/12/03 01:35:33;;;;;;;21.13;14.10;;;;;;;-0.88;93.29;97010.25;5071761;28;20197;-84
2020/12/03 01:38:00;;;;;;;18.77;13.17;;;;;;;-0.54;92.44;97006.94;5072184;28;20620;-84
2020/12/03 01:40:27;;;;;;;16.93;10.97;;;;;;;-0.66;92.26;97010.91;5071941;28;20197;-84
2020/12/03 01:42:54;;;;;;;17.13;13.03;;;;;;;-0.56;91.74;97001.81;5071851;28;20228;-85
2020/12/03 01:45:49;;;;;;;16.97;13.37;;;;;;;-0.58;92.50;97010.56;5072099;28;20200;-85
2020/12/03 01:48:25;;;;;;;16.60;11.07;;;;;;;-0.58;92.73;97006.25;5072226;28;20246;-85
2020/12/03 01:50:52;;;;;;;17.17;12.00;;;;;;;-0.54;91.39;97001.78;5071833;28;20271;-85
2020/12/03 01:53:20;;;;;;;16.73;11.03;;;;;;;-0.51;92.83;96986.13;5071475;28;20197;-84
2020/12/03 01:55:48;;;;;;;22.40;13.53;;;;;;;-0.49;93.66;96989.47;5072128;28;20226;-84
2020/12/03 01:58:26;;;;;;;18.80;12.23;;;;;;;-0.45;94.61;97000.47;5071909;28;20292;-85
2020/12/03 02:00:54;;;;;;;18.73;11.67;;;;;;;-0.39;94.59;97006.19;5071794;28;20186;-84
2020/12/03 02:03:22;;;;;;;18.40;12.00;;;;;;;-0.66;94.02;97008.31;5071631;28;20221;-86
2020/12/03 02:05:49;;;;;;;13.20;10.10;;;;;;;-0.98;94.57;97002.06;5074050;28;20193;-85
2020/12/03 02:08:16;;;;;;;12.73;9.80;;;;;;;-1.01;95.10;97003.03;5075687;28;20236;-86
2020/12/03 02:10:43;;;;;;;19.50;12.70;;;;;;;-0.84;94.42;97004.03;5075820;28;20651;-85
2020/12/03 02:13:09;;;;;;;19.97;12.77;;;;;;;-0.60;94.11;97002.06;5075746;28;20276;-86
2020/12/03 02:15:36;;;;;;;18.00;12.50;;;;;;;-0.73;93.07;96997.47;5075823;28;20205;-85
2020/12/03 02:18:06;;;;;;;25.53;16.43;;;;;;;-0.73;93.07;97010.38;5075345;28;20667;-86
2020/12/03 02:20:34;;;;;;;24.43;16.73;;;;;;;-0.78;92.89;97009.75;5075924;28;20696;-86
2020/12/03 02:23:10;;;;;;;20.70;14.43;;;;;;;-0.88;93.64;97002.50;5075153;28;20225;-86
2020/12/03 02:25:37;;;;;;;21.03;13.67;;;;;;;-1.00;94.64;97006.50;5075264;28;20181;-86
2020/12/03 02:28:05;;;;;;;21.33;12.93;;;;;;;-0.86;94.72;97003.28;5074931;28;20201;-86
2020/12/03 02:30:32;;;;;;;20.43;13.63;;;;;;;-1.12;95.06;97002.69;5075441;28;20228;-86
2020/12/03 02:33:00;;;;;;;19.23;12.77;;;;;;;-0.96;95.92;97005.44;5075159;28;20193;-86
2020/12/03 02:35:27;;;;;;;23.27;14.63;;;;;;;-1.17;96.71;97006.41;5075090;28;20201;-85
2020/12/03 02:37:55;;;;;;;23.37;14.20;;;;;;;-1.04;96.79;96999.78;5075078;28;20201;-86
2020/12/03 02:40:22;;;;;;;25.70;14.03;;;;;;;-1.04;96.77;96998.06;5076028;28;20215;-86
2020/12/03 02:42:49;;;;;;;24.00;14.20;;;;;;;-0.97;96.75;96996.00;5074843;28;20225;-86
2020/12/03 02:45:16;;;;;;;23.10;13.27;;;;;;;-1.08;96.51;96990.50;5075420;28;20270;-85
2020/12/03 02:47:43;;;;;;;25.87;14.53;;;;;;;-0.88;96.40;96987.84;5074945;28;20289;-85
2020/12/03 02:50:10;;;;;;;23.93;14.27;;;;;;;-0.76;95.61;96987.28;5074528;28;20205;-86
2020/12/03 02:52:37;;;;;;;24.30;13.57;;;;;;;-0.95;96.98;96978.72;5074694;28;20547;-86
2020/12/03 02:55:05;;;;;;;22.50;13.87;;;;;;;-0.98;97.43;96984.84;5074601;28;20632;-86
2020/12/03 02:57:32;;;;;;;25.63;13.90;;;;;;;-1.01;97.64;96990.16;5074512;28;20196;-86
2020/12/03 02:59:58;;;;;;;23.53;13.97;;;;;;;-1.02;97.51;96985.06;5074681;28;20240;-86
2020/12/03 03:02:25;;;;;;;23.90;13.10;;;;;;;-0.97;97.41;96983.97;5074337;28;20221;-86
2020/12/03 03:04:52;;;;;;;24.57;14.03;;;;;;;-0.94;96.80;96982.13;5074523;28;20244;-86
2020/12/03 03:07:19;;;;;;;23.03;13.23;;;;;;;-1.25;97.93;96976.66;5074688;28;20269;-86
2020/12/03 03:09:46;;;;;;;22.73;13.40;;;;;;;-1.44;99.24;96988.66;5074635;28;20236;-86
2020/12/03 03:12:14;;;;;;;25.40;14.43;;;;;;;-1.39;100.00;96989.28;5074805;28;20625;-87
2020/12/03 03:14:41;;;;;;;18.83;12.80;;;;;;;-1.19;99.79;96985.81;5074684;28;20212;-86
2020/12/03 03:17:08;;;;;;;23.33;14.63;;;;;;;-1.27;99.21;96982.78;5073347;28;20243;-87
2020/12/03 03:19:35;;;;;;;20.33;12.53;;;;;;;-1.04;98.53;96974.84;5074487;28;20280;-87
2020/12/03 03:22:01;;;;;;;23.00;13.00;;;;;;;-0.91;97.77;96975.09;5074160;28;20212;-87
2020/12/03 03:24:28;;;;;;;21.87;12.50;;;;;;;-0.95;97.78;96978.72;5074230;28;20212;-87
2020/12/03 03:26:55;;;;;;;26.40;14.17;;;;;;;-0.98;97.64;96974.53;5074216;28;20669;-87
2020/12/03 03:29:23;;;;;;;22.03;13.63;;;;;;;-0.99;97.32;96970.28;5073962;28;20201;-84
2020/12/03 03:31:50;;;;;;;22.17;14.80;;;;;;;-0.88;97.85;96977.53;5074163;28;20207;-87
2020/12/03 03:34:17;;;;;;;24.30;14.80;;;;;;;-0.88;97.03;96977.53;5074258;28;20201;-86
2020/12/03 03:36:44;;;;;;;25.27;15.33;;;;;;;-0.91;96.74;96977.66;5074011;28;20219;-86
2020/12/03 03:39:16;;;;;;;22.33;14.03;;;;;;;-0.84;96.64;96980.81;5074052;28;20570;-86
2020/12/03 03:41:43;;;;;;;24.00;12.93;;;;;;;-1.02;96.63;96982.50;5073956;28;20233;-86
2020/12/03 03:44:10;;;;;;;23.20;15.40;;;;;;;-1.13;97.99;96979.56;5074208;28;20302;-87
2020/12/03 03:46:38;;;;;;;22.67;14.30;;;;;;;-1.20;98.71;96987.56;5073805;28;20197;-87
2020/12/03 03:49:05;;;;;;;26.30;14.63;;;;;;;-1.17;97.95;96981.44;5073934;28;20263;-86
2020/12/03 03:51:32;;;;;;;21.40;14.43;;;;;;;-1.17;98.21;96985.78;5073944;28;20200;-85
2020/12/03 03:53:58;;;;;;;19.53;14.17;;;;;;;-0.96;98.24;96984.78;5073560;28;20244;-86
2020/12/03 03:56:25;;;;;;;19.77;12.10;;;;;;;-1.16;97.83;96982.28;5073544;28;20258;-86
2020/12/03 03:58:52;;;;;;;22.93;14.33;;;;;;;-1.10;98.46;96979.44;5073721;28;20204;-87
2020/12/03 04:01:19;;;;;;;21.87;13.47;;;;;;;-1.30;98.03;96985.47;5073669;28;20232;-87
2020/12/03 04:03:47;;;;;;;21.30;13.23;;;;;;;-1.07;98.30;96987.03;5073286;28;20312;-86
2020/12/03 04:06:14;;;;;;;23.33;15.93;;;;;;;-0.92;97.91;96988.06;5073443;28;20258;-87
2020/12/03 04:08:40;;;;;;;21.77;16.50;;;;;;;-0.88;97.83;96982.69;5073453;28;20219;-87
2020/12/03 04:11:07;;;;;;;19.40;12.73;;;;;;;-0.74;97.31;96976.88;5073466;28;20240;-87
2020/12/03 04:13:34;;;;;;;22.63;13.57;;;;;;;-0.89;96.24;96972.44;5073432;28;20216;-87
2020/12/03 04:16:01;;;;;;;24.37;15.10;;;;;;;-0.78;96.78;96970.19;5072985;28;20229;-87
2020/12/03 04:18:28;;;;;;;21.70;14.27;;;;;;;-0.82;96.23;96974.66;5073036;28;20250;-87
2020/12/03 04:20:57;;;;;;;22.30;15.37;;;;;;;-0.94;96.50;96980.38;5073330;28;20204;-86
2020/12/03 04:23:24;;;;;;;22.70;13.90;;;;;;;-0.99;96.80;96980.59;5073059;28;20657;-86
2020/12/03 04:25:52;;;;;;;20.43;13.07;;;;;;;-1.06;97.25;96980.97;5073271;28;20197;-87
2020/12/03 04:28:19;;;;;;;19.47;13.43;;;;;;;-1.22;98.02;96980.81;5073242;28;20297;-87
2020/12/03 04:30:46;;;;;;;26.27;15.77;;;;;;;-0.95;97.93;96976.13;5073400;28;20197;-87
2020/12/03 04:33:13;;;;;;;19.53;13.07;;;;;;;-0.88;97.01;96982.69;5073135;28;20236;-87
2020/12/03 04:35:40;;;;;;;23.47;15.43;;;;;;;-0.83;96.64;96979.88;5073275;28;20556;-87
2020/12/03 04:38:09;;;;;;;22.60;13.30;;;;;;;-0.74;96.26;96975.13;5073171;28;20235;-87
2020/12/03 04:40:39;;;;;;;20.33;13.13;;;;;;;-0.74;96.19;96977.72;5072975;28;20258;-87
2020/12/03 04:43:15;;;;;;;21.57;13.80;;;;;;;-0.73;96.30;96968.22;5072589;28;20727;-87
2020/12/03 04:45:46;;;;;;;21.50;15.40;;;;;;;-0.67;96.01;96957.63;5072667;28;20184;-88
2020/12/03 04:48:52;;;;;;;23.40;14.10;;;;;;;-0.63;95.68;96966.88;5072800;28;20638;-87
2020/12/03 04:54:40;;;;;;;26.60;15.83;;;;;;;-0.76;96.24;96976.13;5070361;28;20233;-87
2020/12/03 04:57:22;;;;;;;24.53;17.03;;;;;;;-0.77;96.85;96980.44;5073163;28;20362;-89
2020/12/03 05:00:01;;;;;;;21.90;14.77;;;;;;;-0.72;95.96;96973.34;5073161;28;20186;-88
2020/12/03 05:03:01;;;;;;;21.83;15.23;;;;;;;-0.99;97.43;96980.59;5073163;28;20207;-88
2020/12/03 05:05:35;;;;;;;26.57;15.50;;;;;;;-0.63;96.45;96981.53;5074356;28;20621;-85
2020/12/03 05:08:08;;;;;;;22.33;14.43;;;;;;;-0.61;95.03;96987.47;5082352;28;20220;-86
2020/12/03 05:10:45;;;;;;;21.03;14.80;;;;;;;-0.83;95.60;96979.88;5071210;28;20186;-87
2020/12/03 05:13:19;;;;;;;25.67;15.90;;;;;;;-0.98;96.89;96989.19;5070956;28;20238;-87
2020/12/03 05:15:49;;;;;;;24.37;16.30;;;;;;;-0.72;97.05;96993.16;5071288;28;20180;-87
2020/12/03 05:18:41;;;;;;;24.80;16.77;;;;;;;-0.83;96.31;96993.66;5071385;28;20195;-86
2020/12/03 05:21:13;;;;;;;29.23;17.87;;;;;;;-0.99;97.13;96990.94;5072236;28;20562;-86
2020/12/03 05:23:40;;;;;;;28.07;19.23;;;;;;;-1.16;98.48;96996.00;5072237;28;20225;-86
2020/12/03 05:26:15;;;;;;;27.50;18.87;;;;;;;-1.15;99.00;96994.25;5072321;28;20227;-86
2020/12/03 05:28:58;;;;;;;24.50;15.90;;;;;;;-0.94;98.64;96980.38;5072260;28;20177;-87
2020/12/03 05:31:30;;;;;;;24.13;16.97;;;;;;;-0.60;97.62;96989.16;5070904;28;20236;-87
2020/12/03 05:34:00;;;;;;;30.43;18.43;;;;;;;-0.60;96.12;96982.22;5072164;28;20225;-87
2020/12/03 05:36:33;;;;;;;26.97;17.07;;;;;;;-0.80;96.74;96984.91;5072358;28;20189;-86
2020/12/03 05:39:01;;;;;;;22.53;14.43;;;;;;;-0.82;96.78;96995.31;5072301;28;20224;-87
2020/12/03 05:41:34;;;;;;;25.73;16.90;;;;;;;-1.02;97.82;96988.47;5074779;28;20192;-86
2020/12/03 05:44:06;;;;;;;56.03;30.50;;;;;;;-0.90;98.28;96992.25;5076025;28;20205;-87
2020/12/03 05:46:35;;;;;;;28.03;15.83;;;;;;;-0.93;98.50;96992.41;5075724;28;20638;-86
2020/12/03 05:49:05;;;;;;;26.73;18.23;;;;;;;-0.98;98.69;96994.34;5076338;28;20236;-87
2020/12/03 05:51:34;;;;;;;23.03;14.57;;;;;;;-0.79;98.30;96990.00;5076036;28;20192;-86
2020/12/03 05:54:07;;;;;;;20.07;14.07;;;;;;;-0.76;97.62;96989.88;5075712;28;20243;-86
2020/12/03 05:56:35;;;;;;;23.30;15.07;;;;;;;-0.69;98.09;96989.56;5076433;28;20205;-87
2020/12/03 05:59:18;;;;;;;29.13;16.33;;;;;;;-0.73;96.66;96984.56;5076067;28;20193;-88
2020/12/03 06:02:00;;;;;;;18.67;13.37;;;;;;;-0.76;97.02;96994.22;5076277;28;20228;-87
2020/12/03 06:04:35;;;;;;;22.67;16.10;;;;;;;-0.65;97.04;96998.88;5076222;28;20205;-87
2020/12/03 06:07:30;;;;;;;27.03;15.97;;;;;;;-0.68;96.75;96996.44;5075766;28;20193;-87
2020/12/03 06:10:14;;;;;;;26.90;17.50;;;;;;;-0.62;96.25;97001.31;5075937;28;20596;-87
2020/12/03 06:13:03;;;;;;;25.07;15.60;;;;;;;-0.50;96.36;96993.78;5075488;28;20669;-87
2020/12/03 06:15:38;;;;;;;23.87;15.37;;;;;;;-0.36;94.60;96998.31;5075931;28;20642;-86
2020/12/03 06:18:44;;;;;;;27.13;16.33;;;;;;;-0.69;96.35;96995.59;5075544;28;20181;-86
2020/12/03 06:21:39;;;;;;;25.43;15.03;;;;;;;-0.93;96.56;97002.72;5076297;28;20225;-87
2020/12/03 06:24:26;;;;;;;24.30;16.23;;;;;;;-0.99;97.45;96998.66;5076166;28;20308;-87
2020/12/03 06:27:15;;;;;;;24.67;15.60;;;;;;;-0.92;97.12;97004.38;5076822;28;20638;-87
2020/12/03 06:30:00;;;;;;;28.13;16.03;;;;;;;-0.88;97.39;97007.66;5076730;28;20181;-87
2020/12/03 06:33:00;;;;;;;22.23;15.60;;;;;;;-0.81;96.63;97009.06;5076408;28;20224;-88
2020/12/03 06:35:35;;;;;;;31.60;17.23;;;;;;;-0.73;95.75;97005.22;5075803;28;20182;-88
2020/12/03 06:38:30;;;;;;;28.83;16.93;;;;;;;-0.73;95.74;96994.03;5076210;28;20631;-88
2020/12/03 06:41:18;;;;;;;20.80;14.40;;;;;;;-0.96;96.54;97000.28;5076033;28;20201;-88
2020/12/03 06:43:51;;;;;;;23.33;16.13;;;;;;;-0.94;96.67;96990.69;5077474;28;20206;-88
2020/12/03 06:47:03;;;;;;;36.10;20.83;;;;;;;-0.93;97.01;97001.88;5077287;28;20266;-88
2020/12/03 06:49:55;;;;;;;24.50;17.23;;;;;;;-1.02;97.79;97010.88;5076963;28;20182;-88
2020/12/03 06:52:57;;;;;;;27.07;16.83;;;;;;;-0.85;97.68;97000.63;5077709;28;20231;-87
2020/12/03 06:55:57;;;;;;;25.60;16.80;;;;;;;-0.91;97.66;97006.06;5076414;28;20232;-87
2020/12/03 06:59:11;;;;;;;19.93;15.07;;;;;;;-0.77;96.15;97006.25;5075894;28;20252;-88
2020/12/03 07:02:02;;;;;;;19.83;13.40;;;;;;;-0.74;96.52;97003.53;5078045;28;20205;-88
2020/12/03 07:05:03;;;;;;;24.53;15.60;;;;;;;-0.75;96.22;97011.34;5079224;28;20263;-87
2020/12/03 07:07:58;;;;;;;25.20;17.13;;;;;;;-0.76;96.24;97004.53;5076663;28;20215;-87
2020/12/03 07:11:03;;;;;;;27.13;17.60;;;;;;;-0.77;96.42;96998.50;5076552;28;20546;-86
2020/12/03 07:14:26;;;;;;;28.10;18.10;;;;;;;-0.77;96.98;97011.41;5075481;28;20185;-87
2020/12/03 07:17:32;;;;;;;25.27;16.60;;;;;;;-0.73;95.93;97007.81;5015689;28;20210;-87
2020/12/03 07:20:37;;;;;;;24.37;16.87;;;;;;;-0.67;96.19;97011.00;5076582;28;20208;-85
2020/12/03 07:23:09;;;;;;;22.70;14.70;;;;;;;-0.85;96.00;97016.09;5075746;28;20221;-87
2020/12/03 07:25:39;;;;;;;24.60;16.87;;;;;;;-0.68;96.72;97009.31;5075900;28;20181;-87
2020/12/03 07:28:16;;;;;;;23.97;17.17;;;;;;;-0.72;96.01;97014.63;5076257;28;20204;-86
2020/12/03 07:30:53;;;;;;;30.63;20.10;;;;;;;-0.86;97.24;97022.19;5076842;28;20185;-86
2020/12/03 07:33:29;;;;;;;22.67;15.67;;;;;;;-0.78;97.14;97026.97;5075089;28;20216;-87
2020/12/03 07:36:16;;;;;;;25.90;16.30;;;;;;;-0.74;95.74;97018.19;5076875;28;20196;-87
2020/12/03 07:38:51;;;;;;;26.30;15.90;;;;;;;-0.94;96.49;97020.84;5076509;28;20185;-86
2020/12/03 07:41:20;;;;;;;25.63;18.43;;;;;;;-1.05;97.40;97024.75;5075031;28;20199;-86
2020/12/03 07:43:47;;;;;;;22.93;16.13;;;;;;;-0.93;97.81;97027.69;5074701;28;20217;-86
2020/12/03 07:46:38;;;;;;;22.97;15.60;;;;;;;-0.93;97.19;97038.00;5074471;28;20766;-86
2020/12/03 07:49:06;;;;;;;21.90;15.00;;;;;;;-0.95;97.22;97035.50;5075817;28;20707;-86
2020/12/03 07:51:34;;;;;;;18.80;13.87;;;;;;;-0.75;96.02;97032.00;5074179;28;20239;-85
2020/12/03 07:54:24;;;;;;;18.80;13.60;;;;;;;-0.84;95.78;97029.84;5073854;28;20229;-85
2020/12/03 07:56:52;;;;;;;18.40;12.70;;;;;;;-0.57;94.93;97019.97;5073786;28;20205;-85
2020/12/03 07:59:39;;;;;;;22.83;13.63;;;;;;;-0.75;95.35;97026.84;5073606;28;20242;-85
2020/12/03 08:02:57;;;;;;;21.27;15.33;;;;;;;-0.83;95.55;97019.47;5073415;28;20210;-85
2020/12/03 08:05:50;;;;;;;24.57;14.63;;;;;;;-0.70;95.93;97008.56;5011753;28;20242;-85
2020/12/03 08:08:36;;;;;;;20.47;13.57;;;;;;;-0.85;96.44;97016.09;5011667;28;20267;-86
2020/12/03 08:11:04;;;;;;;20.37;14.10;;;;;;;-0.90;96.69;97012.91;5011581;28;20705;-87
2020/12/03 08:13:35;;;;;;;21.43;14.13;;;;;;;-0.69;95.88;97020.53;5011297;28;20205;-86
2020/12/03 08:16:05;;;;;;;20.37;14.03;;;;;;;-0.78;95.98;97022.66;5011957;28;20207;-86
2020/12/03 08:18:47;;;;;;;22.37;14.20;;;;;;;-0.85;96.22;97025.59;5011788;28;20765;-85
2020/12/03 08:21:18;;;;;;;21.63;14.87;;;;;;;-0.79;96.06;97026.16;5011527;28;20293;-86
2020/12/03 08:23:53;;;;;;;21.93;16.13;;;;;;;-0.76;96.06;97036.34;5011920;28;20230;-86
2020/12/03 08:26:25;;;;;;;22.47;16.03;;;;;;;-0.73;96.37;97040.50;5011354;28;20257;-86
2020/12/03 08:28:52;;;;;;;18.33;12.90;;;;;;;-0.75;95.47;97042.34;5011289;28;20730;-85
2020/12/03 08:31:18;;;;;;;18.80;13.60;;;;;;;-0.57;95.39;97041.47;5011193;28;20239;-86
2020/12/03 08:33:52;;;;;;;20.53;13.30;;;;;;;-0.52;94.43;97046.41;5010918;28;20246;-86
2020/12/03 08:36:19;;;;;;;24.27;14.70;;;;;;;-0.59;94.50;97053.63;5043231;28;20573;-86
2020/12/03 08:38:53;;;;;;;20.57;14.17;;;;;;;-0.64;95.14;97055.56;5072592;28;20193;-86
2020/12/03 08:41:25;;;;;;;21.37;14.37;;;;;;;-0.59;95.24;97045.88;5072556;28;20193;-85
2020/12/03 08:43:54;;;;;;;20.13;12.90;;;;;;;-0.57;94.22;97045.81;5072812;28;20270;-86
2020/12/03 08:46:24;;;;;;;18.93;14.17;;;;;;;-0.44;93.67;97036.59;5072823;28;20201;-86
2020/12/03 08:48:52;;;;;;;22.37;14.07;;;;;;;-0.49;93.99;97038.53;5072778;28;20200;-86
2020/12/03 08:51:19;;;;;;;21.83;14.40;;;;;;;-0.59;94.67;97038.16;5072527;28;20259;-86
2020/12/03 08:53:48;;;;;;;24.53;16.10;;;;;;;-0.25;94.92;97023.63;5072149;28;20286;-86
2020/12/03 08:56:39;;;;;;;27.37;17.87;;;;;;;0.07;93.01;97019.47;5072893;28;20573;-86
2020/12/03 08:59:11;;;;;;;26.30;16.27;;;;;;;0.18;91.72;97019.78;5072547;28;20197;-86
2020/12/03 09:01:41;;;;;;;26.60;16.97;;;;;;;0.10;92.23;97016.72;5072413;28;20762;-86
2020/12/03 09:04:10;;;;;;;23.67;15.17;;;;;;;-0.01;91.55;97016.41;5072302;28;20244;-85
2020/12/03 09:06:47;;;;;;;20.40;13.87;;;;;;;0.08;91.92;97017.72;5072273;28;20193;-86
2020/12/03 09:09:18;;;;;;;25.87;15.90;;;;;;;-0.06;92.56;97016.66;5072269;28;20189;-86
2020/12/03 09:11:46;;;;;;;30.37;18.63;;;;;;;0.22;91.89;97008.38;5072170;28;20630;-86
2020/12/03 09:14:13;;;;;;;26.20;17.70;;;;;;;0.26;91.13;97006.47;5071880;28;20189;-87
2020/12/03 09:16:44;;;;;;;27.17;22.03;;;;;;;0.37;91.01;97005.91;5071425;28;20271;-87
2020/12/03 09:19:11;;;;;;;23.70;16.60;;;;;;;0.69;90.09;96997.34;5072003;28;20185;-87
2020/12/03 09:21:41;;;;;;;21.70;14.03;;;;;;;0.60;89.74;96990.06;5071948;28;20255;-86
2020/12/03 09:24:11;;;;;;;18.27;12.87;;;;;;;0.42;89.45;96986.69;5072340;28;20637;-87
2020/12/03 09:26:41;;;;;;;17.77;13.63;;;;;;;0.37;90.19;96993.00;5072204;28;20197;-86
2020/12/03 09:29:11;;;;;;;22.50;15.90;;;;;;;0.52;90.05;96984.47;5072318;28;20231;-87
2020/12/03 09:31:38;;;;;;;22.57;16.10;;;;;;;0.53;90.30;96987.88;5071971;28;20189;-87
2020/12/03 09:34:08;;;;;;;28.57;21.70;;;;;;;0.54;90.03;96986.94;5072091;28;20193;-87
2020/12/03 09:36:38;;;;;;;24.30;18.47;;;;;;;0.59;90.87;96978.06;5072002;28;20197;-86
2020/12/03 09:39:05;;;;;;;20.47;15.03;;;;;;;0.87;89.55;96987.78;5071966;28;20262;-87
2020/12/03 09:41:33;;;;;;;43.67;27.93;;;;;;;0.94;88.87;96975.34;5072486;28;20625;-87
2020/12/03 09:44:05;;;;;;;28.53;19.03;;;;;;;1.04;89.19;96976.53;5072119;28;20231;-87
2020/12/03 09:46:37;;;;;;;20.20;15.47;;;;;;;1.16;88.16;96968.09;5071808;28;20638;-87
2020/12/03 09:49:05;;;;;;;19.77;14.00;;;;;;;0.98;87.97;96978.63;5071942;28;20181;-86
2020/12/03 09:51:34;;;;;;;26.47;15.00;;;;;;;1.06;87.20;96968.66;5072091;28;20243;-87
2020/12/03 09:54:03;;;;;;;20.60;15.40;;;;;;;0.81;88.24;96969.16;5071848;28;20752;-87
2020/12/03 09:56:35;;;;;;;18.80;14.27;;;;;;;0.84;89.95;96959.47;5071812;28;20198;-87
2020/12/03 09:59:02;;;;;;;20.67;15.40;;;;;;;1.61;87.37;96948.31;5072417;28;20186;-87
2020/12/03 10:01:47;;;;;;;22.83;14.87;;;;;;;1.75;85.89;96949.28;5071988;28;20251;-87
2020/12/03 10:04:39;;;;;;;27.87;17.80;;;;;;;1.67;86.40;96955.75;5072515;28;20669;-87
2020/12/03 10:07:17;;;;;;;20.37;14.37;;;;;;;1.76;86.01;96969.09;5071849;28;20181;-87
2020/12/03 10:10:16;;;;;;;24.73;16.73;;;;;;;1.99;85.52;96954.81;5073190;28;20197;-88
2020/12/03 10:12:55;;;;;;;20.50;13.97;;;;;;;2.11;83.43;96938.53;5071950;28;20221;-87
2020/12/03 10:15:40;;;;;;;21.97;15.00;;;;;;;1.92;85.55;96935.38;5072704;28;20626;-87
2020/12/03 10:18:10;;;;;;;23.13;13.33;;;;;;;2.26;82.85;96945.44;5071849;28;20190;-88
2020/12/03 10:20:38;;;;;;;18.53;13.07;;;;;;;3.00;78.76;96940.97;5072563;28;20638;-88
2020/12/03 10:23:26;;;;;;;19.87;13.43;;;;;;;3.00;78.38;96946.97;5071977;28;20633;-88
2020/12/03 10:26:01;;;;;;;22.97;16.27;;;;;;;3.78;75.14;96936.00;5072745;28;20182;-88
2020/12/03 10:28:37;;;;;;;26.83;14.63;;;;;;;3.54;76.03;96926.25;5076168;28;20564;-88
2020/12/03 10:31:05;;;;;;;22.07;16.10;;;;;;;3.94;76.05;96928.81;5075645;28;20239;-88
2020/12/03 10:33:35;;;;;;;22.00;14.83;;;;;;;4.48;73.75;96920.84;5075214;28;20235;-88
2020/12/03 10:36:24;;;;;;;18.30;14.17;;;;;;;4.46;74.01;96920.13;5075423;28;20665;-89
2020/12/03 10:38:55;;;;;;;21.67;14.47;;;;;;;4.98;71.37;96910.47;5075520;28;20243;-88
2020/12/03 10:41:32;;;;;;;18.10;12.97;;;;;;;3.81;74.47;96917.59;5075369;28;20208;-88
2020/12/03 10:44:04;;;;;;;22.70;16.17;;;;;;;4.02;74.87;96915.34;5075625;28;20618;-88
2020/12/03 10:46:37;;;;;;;20.30;14.07;;;;;;;4.04;74.75;96908.25;5075236;28;20184;-88
2020/12/03 10:49:05;;;;;;;18.40;14.17;;;;;;;3.37;78.37;96907.47;5075456;28;20219;-88
2020/12/03 10:51:33;;;;;;;19.83;14.00;;;;;;;3.40;77.86;96908.13;5075087;28;20197;-88
2020/12/03 10:54:00;;;;;;;19.07;13.73;;;;;;;2.82;79.58;96911.78;5074637;28;20315;-88
2020/12/03 10:56:30;;;;;;;23.97;15.40;;;;;;;2.45;80.92;96908.84;5075159;28;20185;-88
2020/12/03 10:59:32;;;;;;;24.90;16.73;;;;;;;2.79;80.78;96914.56;5075836;28;20200;-88
2020/12/03 11:02:00;;;;;;;24.10;16.37;;;;;;;2.59;81.05;96910.59;5074978;28;20266;-88
2020/12/03 11:04:28;;;;;;;25.70;17.00;;;;;;;2.58;80.71;96901.16;5074412;28;20267;-87
2020/12/03 11:06:57;;;;;;;21.67;15.83;;;;;;;2.78;80.42;96911.16;5074744;28;20193;-89
2020/12/03 11:09:27;;;;;;;23.57;15.90;;;;;;;2.72;80.19;96903.72;5074718;28;20194;-88
2020/12/03 11:11:55;;;;;;;27.13;17.83;;;;;;;2.85;80.45;96912.44;5074923;28;20197;-88
2020/12/03 11:14:23;;;;;;;22.90;17.17;;;;;;;2.89;79.85;96907.88;5074864;28;20649;-88
2020/12/03 11:16:55;;;;;;;23.80;17.27;;;;;;;3.38;77.92;96889.19;5074713;28;20227;-88
2020/12/03 11:19:24;;;;;;;25.30;16.83;;;;;;;3.50;78.49;96877.19;5074639;28;20212;-89
2020/12/03 11:22:03;;;;;;;27.47;18.50;;;;;;;4.51;75.93;96868.59;5074794;28;20288;-88
2020/12/03 11:24:38;;;;;;;22.20;15.50;;;;;;;5.19;71.31;96861.19;5074901;28;20220;-88
2020/12/03 11:27:06;;;;;;;21.80;15.20;;;;;;;4.04;73.36;96864.03;5074815;28;20234;-90
2020/12/03 11:29:36;;;;;;;22.30;15.20;;;;;;;4.06;74.93;96869.97;5075127;28;20196;-88
2020/12/03 11:32:03;;;;;;;25.57;15.67;;;;;;;3.88;75.09;96860.78;5074845;28;20197;-89
2020/12/03 11:34:37;;;;;;;23.70;15.73;;;;;;;4.08;73.50;96856.84;5074560;28;20193;-89
2020/12/03 11:37:04;;;;;;;22.67;14.80;;;;;;;3.88;75.61;96863.38;5074432;28;20639;-88
2020/12/03 11:39:31;;;;;;;22.27;15.27;;;;;;;3.86;75.45;96867.88;5073595;28;20240;-88
2020/12/03 11:42:22;;;;;;;24.70;16.13;;;;;;;3.89;74.87;96858.09;5074242;28;20236;-88
2020/12/03 11:50:24;;;;;;;24.30;16.57;;;;;;;3.42;78.32;96851.66;5073991;28;20197;-89
2020/12/03 11:52:51;;;;;;;25.73;16.87;;;;;;;3.53;78.05;96856.16;5074312;28;20274;-88
2020/12/03 11:55:23;;;;;;;21.90;16.70;;;;;;;3.66;77.35;96841.41;5073858;28;20324;-87
2020/12/03 11:57:51;;;;;;;26.07;17.63;;;;;;;3.57;77.67;96837.69;5073992;28;20243;-88